Time;durP1;ratioP1;P1;durP2;ratioP2;P2;SDS_P1;SDS_P2;PMS_P1;PMS_P2;Temp;Humidity;BMP_temperature;BMP_pressure;BME280_temperature;BME280_humidity;BME280_pressure;Samples;Min_cycle;Max_cycle;Signal;HPM_P1;HPM_P2
2022/01/29 00:01:23;;;;;;;40.63;14.20;;;;;;;;;;5065523;28;20048;-58
2022/01/29 00:03:51;;;;;;;38.45;15.30;;;;;;;;;;5063138;28;20060;-58
2022/01/29 00:06:17;;;;;;;44.53;15.80;;;;;;;;;;5069819;28;20083;-57
2022/01/29 00:08:44;;;;;;;43.80;15.95;;;;;;;;;;5065046;28;20048;-54
2022/01/29 00:11:14;;;;;;;32.72;14.10;;;;;;;;;;5062435;28;20045;-55
2022/01/29 00:13:40;;;;;;;44.97;15.48;;;;;;;;;;5069403;28;20139;-57
2022/01/29 00:16:09;;;;;;;37.88;14.68;;;;;;;;;;5063812;28;20068;-56
2022/01/29 00:18:36;;;;;;;36.65;14.20;;;;;;;;;;5070239;28;20056;-57
2022/01/29 00:21:04;;;;;;;38.00;15.15;;;;;;;;;;5049426;28;20067;-59
2022/01/29 00:23:31;;;;;;;35.70;14.85;;;;;;;;;;5050665;28;20160;-59
2022/01/29 00:25:59;;;;;;;41.28;15.88;;;;;;;;;;5045986;28;20129;-55
2022/01/29 00:28:26;;;;;;;44.33;14.63;;;;;;;;;;5067456;28;20036;-55
2022/01/29 00:30:53;;;;;;;29.20;12.52;;;;;;;;;;5064284;28;20056;-57
2022/01/29 00:33:20;;;;;;;38.10;15.35;;;;;;;;;;5069198;28;20127;-59
2022/01/29 00:35:47;;;;;;;38.45;14.50;;;;;;;;;;5063744;28;20069;-55
2022/01/29 00:38:15;;;;;;;45.47;14.73;;;;;;;;;;5069374;28;20398;-57
2022/01/29 00:40:42;;;;;;;35.33;14.27;;;;;;;;;;5062668;28;20136;-57
2022/01/29 00:43:08;;;;;;;41.58;15.45;;;;;;;;;;5069126;28;20155;-59
2022/01/29 00:45:35;;;;;;;40.35;14.00;;;;;;;;;;5063061;28;20893;-57
2022/01/29 00:48:02;;;;;;;39.47;13.88;;;;;;;;;;5068799;28;20137;-54
2022/01/29 00:50:29;;;;;;;41.42;14.85;;;;;;;;;;5065930;28;20082;-53
2022/01/29 00:52:56;;;;;;;42.50;16.35;;;;;;;;;;5047386;28;20102;-58
2022/01/29 00:55:24;;;;;;;30.40;12.50;;;;;;;;;;5049021;28;20102;-58
2022/01/29 00:57:51;;;;;;;38.95;15.02;;;;;;;;;;5044359;28;20045;-57
2022/01/29 01:00:18;;;;;;;36.05;13.57;;;;;;;;;;5048899;28;20075;-59
2022/01/29 01:02:44;;;;;;;35.28;12.98;;;;;;;;;;5044732;28;20048;-57
2022/01/29 01:05:11;;;;;;;41.33;13.70;;;;;;;;;;5049605;28;20114;-57
2022/01/29 01:07:38;;;;;;;37.25;14.88;;;;;;;;;;5043857;28;20041;-56
2022/01/29 01:10:05;;;;;;;30.85;13.93;;;;;;;;;;5048579;28;20050;-59
2022/01/29 01:12:33;;;;;;;39.85;13.63;;;;;;;;;;5053092;28;20052;-55
2022/01/29 01:15:00;;;;;;;36.00;13.73;;;;;;;;;;5047584;28;20135;-56
2022/01/29 01:17:26;;;;;;;30.88;12.85;;;;;;;;;;5050789;28;20040;-55
2022/01/29 01:19:53;;;;;;;31.15;12.80;;;;;;;;;;5068616;28;20056;-58
2022/01/29 01:22:19;;;;;;;32.30;12.43;;;;;;;;;;5062769;28;20209;-58
2022/01/29 01:24:47;;;;;;;31.42;11.75;;;;;;;;;;5069435;28;20101;-53
2022/01/29 01:27:13;;;;;;;29.27;13.15;;;;;;;;;;5062844;28;20072;-56
2022/01/29 01:29:41;;;;;;;32.38;13.07;;;;;;;;;;5068579;28;20061;-56
2022/01/29 01:32:11;;;;;;;34.63;13.30;;;;;;;;;;5062695;28;20061;-57
2022/01/29 01:34:41;;;;;;;31.27;10.10;;;;;;;;;;5047723;28;20362;-55
2022/01/29 01:37:12;;;;;;;32.22;11.52;;;;;;;;;;5048807;28;20106;-56
2022/01/29 01:39:40;;;;;;;33.45;12.18;;;;;;;;;;5062836;28;20060;-56
2022/01/29 01:42:08;;;;;;;33.65;12.68;;;;;;;;;;5068572;28;20052;-55
2022/01/29 01:44:37;;;;;;;27.90;11.60;;;;;;;;;;5062260;28;20067;-57
2022/01/29 01:47:06;;;;;;;30.67;11.90;;;;;;;;;;5067973;28;20525;-53
2022/01/29 01:49:32;;;;;;;27.35;10.27;;;;;;;;;;5063655;28;20057;-54
2022/01/29 01:51:59;;;;;;;26.73;11.20;;;;;;;;;;5068480;28;20052;-57
2022/01/29 01:54:26;;;;;;;24.77;10.00;;;;;;;;;;5063148;28;20106;-56
2022/01/29 01:56:52;;;;;;;27.45;10.40;;;;;;;;;;5070828;28;20061;-58
2022/01/29 01:59:19;;;;;;;28.85;11.52;;;;;;;;;;5064773;28;20076;-56
2022/01/29 02:01:45;;;;;;;27.73;10.38;;;;;;;;;;5070961;28;20105;-56
2022/01/29 02:04:13;;;;;;;27.40;10.00;;;;;;;;;;5062819;28;20062;-59
2022/01/29 02:06:40;;;;;;;26.00;9.20;;;;;;;;;;5068058;28;20147;-59
2022/01/29 02:09:06;;;;;;;25.50;9.77;;;;;;;;;;5061947;28;20048;-59
2022/01/29 02:11:33;;;;;;;21.58;10.20;;;;;;;;;;5067672;28;20130;-59
2022/01/29 02:14:01;;;;;;;21.73;9.32;;;;;;;;;;5042970;28;20050;-59
2022/01/29 02:16:28;;;;;;;20.85;9.48;;;;;;;;;;5047860;28;20053;-59
2022/01/29 02:18:54;;;;;;;20.25;9.45;;;;;;;;;;5044724;28;20084;-59
2022/01/29 02:21:27;;;;;;;21.23;9.00;;;;;;;;;;5045963;28;20119;-59
2022/01/29 02:23:55;;;;;;;22.80;9.07;;;;;;;;;;5046672;28;20118;-59
2022/01/29 02:26:22;;;;;;;23.13;9.88;;;;;;;;;;5040927;28;20049;-59
2022/01/29 02:28:48;;;;;;;21.05;9.82;;;;;;;;;;5047130;28;20069;-59
2022/01/29 02:31:15;;;;;;;23.48;9.50;;;;;;;;;;5025887;28;20376;-59
2022/01/29 02:33:44;;;;;;;21.27;9.13;;;;;;;;;;5028934;28;20573;-59
2022/01/29 02:36:11;;;;;;;25.45;10.15;;;;;;;;;;5035892;28;20494;-59
2022/01/29 02:38:37;;;;;;;26.60;10.23;;;;;;;;;;5041366;28;20063;-57
2022/01/29 02:41:06;;;;;;;20.02;9.05;;;;;;;;;;5040827;28;20056;-57
2022/01/29 02:43:35;;;;;;;;;;;;;;;;;;5046887;28;20106;-55
2022/01/29 02:46:07;;;;;;;17.17;7.10;;;;;;;;;;5041712;28;19952;-60
2022/01/29 02:48:33;;;;;;;17.60;8.20;;;;;;;;;;5047013;28;20057;-58
2022/01/29 02:51:00;;;;;;;18.27;7.70;;;;;;;;;;5040420;28;20524;-57
2022/01/29 02:53:27;;;;;;;18.00;8.27;;;;;;;;;;5046391;28;20049;-59
2022/01/29 02:55:54;;;;;;;19.23;8.07;;;;;;;;;;5042269;28;20052;-57
2022/01/29 02:58:22;;;;;;;19.02;7.20;;;;;;;;;;5048052;28;20149;-57
2022/01/29 03:00:48;;;;;;;20.40;7.30;;;;;;;;;;5041148;28;20094;-58
2022/01/29 03:03:15;;;;;;;20.20;7.88;;;;;;;;;;5045714;28;20299;-58
2022/01/29 03:05:42;;;;;;;18.77;7.93;;;;;;;;;;5045639;28;20056;-56
2022/01/29 03:08:08;;;;;;;18.02;8.10;;;;;;;;;;5044170;28;20052;-59
2022/01/29 03:10:35;;;;;;;17.15;7.15;;;;;;;;;;5047559;28;20141;-54
2022/01/29 03:13:02;;;;;;;16.33;7.15;;;;;;;;;;5040918;28;20048;-57
2022/01/29 03:15:30;;;;;;;19.30;7.97;;;;;;;;;;5047084;28;20056;-55
2022/01/29 03:17:56;;;;;;;16.05;7.25;;;;;;;;;;5039932;28;20052;-55
2022/01/29 03:20:23;;;;;;;14.75;7.15;;;;;;;;;;5064986;28;20048;-59
2022/01/29 03:22:49;;;;;;;15.65;6.75;;;;;;;;;;5060603;28;20056;-60
2022/01/29 03:25:16;;;;;;;15.13;6.35;;;;;;;;;;5066677;28;20078;-57
2022/01/29 03:27:43;;;;;;;16.67;7.22;;;;;;;;;;5061891;28;20055;-57
2022/01/29 03:30:10;;;;;;;16.10;6.75;;;;;;;;;;5066940;28;20075;-56
2022/01/29 03:32:38;;;;;;;14.20;7.20;;;;;;;;;;5062115;28;20072;-56
2022/01/29 03:35:05;;;;;;;22.00;8.07;;;;;;;;;;5065997;28;20040;-60
2022/01/29 03:37:32;;;;;;;14.30;7.10;;;;;;;;;;5059675;28;20047;-55
2022/01/29 03:40:02;;;;;;;16.40;7.32;;;;;;;;;;5066161;28;20118;-51
2022/01/29 03:42:32;;;;;;;17.80;7.53;;;;;;;;;;5060523;28;20059;-59
2022/01/29 03:45:00;;;;;;;21.45;7.38;;;;;;;;;;5067236;28;20045;-56
2022/01/29 03:47:26;;;;;;;17.30;7.28;;;;;;;;;;5060502;28;20064;-59
2022/01/29 03:49:55;;;;;;;14.23;6.65;;;;;;;;;;5049269;28;20068;-54
2022/01/29 03:52:21;;;;;;;17.50;7.03;;;;;;;;;;5066007;28;20106;-54
2022/01/29 03:54:48;;;;;;;15.88;7.53;;;;;;;;;;5060328;28;20322;-56
2022/01/29 03:57:15;;;;;;;19.50;8.18;;;;;;;;;;5065842;28;20106;-59
2022/01/29 03:59:41;;;;;;;16.00;7.70;;;;;;;;;;5060252;28;20036;-60
2022/01/29 04:02:09;;;;;;;19.45;8.43;;;;;;;;;;5049043;28;20060;-60
2022/01/29 04:04:36;;;;;;;23.93;8.27;;;;;;;;;;5059757;28;20080;-59
2022/01/29 04:07:10;;;;;;;19.30;7.35;;;;;;;;;;5065757;28;20795;-57
2022/01/29 04:09:37;;;;;;;20.10;8.15;;;;;;;;;;5060075;28;20076;-59
2022/01/29 04:12:04;;;;;;;23.50;9.50;;;;;;;;;;5065661;28;20060;-60
2022/01/29 04:14:38;;;;;;;21.48;8.65;;;;;;;;;;5053223;28;20060;-56
2022/01/29 04:17:05;;;;;;;23.83;10.20;;;;;;;;;;5065870;28;20064;-56
2022/01/29 04:19:32;;;;;;;21.38;9.88;;;;;;;;;;5060377;28;20048;-60
2022/01/29 04:21:58;;;;;;;27.27;9.35;;;;;;;;;;5065579;28;20059;-55
2022/01/29 04:24:26;;;;;;;21.83;8.75;;;;;;;;;;5061045;28;20462;-56
2022/01/29 04:26:53;;;;;;;16.20;7.47;;;;;;;;;;5065840;28;20078;-58
2022/01/29 04:29:20;;;;;;;21.58;8.35;;;;;;;;;;5060114;28;20052;-57
2022/01/29 04:31:58;;;;;;;22.98;9.63;;;;;;;;;;5065605;28;20379;-59
2022/01/29 04:34:25;;;;;;;21.17;8.95;;;;;;;;;;5059682;28;20056;-59
2022/01/29 04:36:52;;;;;;;23.02;8.18;;;;;;;;;;5065651;28;20114;-57
2022/01/29 04:39:19;;;;;;;20.30;7.95;;;;;;;;;;5065865;28;20553;-58
2022/01/29 04:41:47;;;;;;;23.92;9.05;;;;;;;;;;5061000;28;20064;-58
2022/01/29 04:44:14;;;;;;;19.00;8.90;;;;;;;;;;5065851;28;20103;-58
2022/01/29 04:46:41;;;;;;;21.13;9.05;;;;;;;;;;5059502;28;20053;-53
2022/01/29 04:49:07;;;;;;;25.23;9.25;;;;;;;;;;5068195;28;20057;-58
2022/01/29 04:51:34;;;;;;;23.05;9.40;;;;;;;;;;5062987;28;20117;-59
2022/01/29 04:54:00;;;;;;;21.77;9.02;;;;;;;;;;5069313;28;20101;-55
2022/01/29 04:56:27;;;;;;;20.27;9.13;;;;;;;;;;5064235;28;20058;-54
2022/01/29 04:58:55;;;;;;;20.23;8.35;;;;;;;;;;5069934;28;20056;-55
2022/01/29 05:01:21;;;;;;;23.33;9.63;;;;;;;;;;5064098;28;20144;-57
2022/01/29 05:03:49;;;;;;;19.15;8.60;;;;;;;;;;5071727;28;20303;-56
2022/01/29 05:06:15;;;;;;;21.63;9.00;;;;;;;;;;5063202;28;20052;-56
2022/01/29 05:08:42;;;;;;;21.15;8.48;;;;;;;;;;5068949;28;20056;-56
2022/01/29 05:11:09;;;;;;;21.67;8.95;;;;;;;;;;5063675;28;20064;-54
2022/01/29 05:13:38;;;;;;;31.73;12.07;;;;;;;;;;5060315;28;20056;-57
2022/01/29 05:16:28;;;;;;;21.15;9.80;;;;;;;;;;5046260;28;20057;-59
2022/01/29 05:27:10;;;;;;;18.67;8.27;;;;;;;;;;5079714;28;20125;-55
2022/01/29 05:29:37;;;;;;;22.48;9.50;;;;;;;;;;5068540;28;20063;-60
2022/01/29 05:32:06;;;;;;;22.27;10.73;;;;;;;;;;5062609;28;20143;-57
2022/01/29 05:34:33;;;;;;;25.60;11.57;;;;;;;;;;5068368;28;20048;-57
2022/01/29 05:37:01;;;;;;;25.30;9.45;;;;;;;;;;5061964;28;20048;-54
2022/01/29 05:39:28;;;;;;;19.63;8.27;;;;;;;;;;5068355;28;20063;-59
2022/01/29 05:41:54;;;;;;;19.48;9.48;;;;;;;;;;5062493;28;20052;-59
2022/01/29 05:44:21;;;;;;;23.77;9.82;;;;;;;;;;5068369;28;20072;-56
2022/01/29 05:46:48;;;;;;;23.98;9.40;;;;;;;;;;5068271;28;20053;-54
2022/01/29 05:49:16;;;;;;;23.23;10.77;;;;;;;;;;5061922;28;20044;-58
2022/01/29 05:51:43;;;;;;;23.60;9.63;;;;;;;;;;5067671;28;20056;-57
2022/01/29 05:54:09;;;;;;;24.20;11.10;;;;;;;;;;5062570;28;20135;-55
2022/01/29 05:56:36;;;;;;;24.27;9.50;;;;;;;;;;5067539;28;20080;-59
2022/01/29 05:59:02;;;;;;;18.45;8.88;;;;;;;;;;5063018;28;20086;-57
2022/01/29 06:01:29;;;;;;;23.52;10.20;;;;;;;;;;5068646;28;20071;-57
2022/01/29 06:03:56;;;;;;;24.30;10.48;;;;;;;;;;5063008;28;20110;-59
2022/01/29 06:06:24;;;;;;;29.00;10.05;;;;;;;;;;5068416;28;20135;-58
2022/01/29 06:08:53;;;;;;;20.00;8.63;;;;;;;;;;5061764;28;20129;-56
2022/01/29 06:11:21;;;;;;;18.33;7.35;;;;;;;;;;5067764;28;20052;-57
2022/01/29 06:13:48;;;;;;;21.45;9.45;;;;;;;;;;5062158;28;20052;-53
2022/01/29 06:16:15;;;;;;;21.50;8.75;;;;;;;;;;5068011;28;20140;-56
2022/01/29 06:18:41;;;;;;;23.10;8.13;;;;;;;;;;5061500;28;20049;-55
2022/01/29 06:21:09;;;;;;;23.63;9.73;;;;;;;;;;5067390;28;20056;-56
2022/01/29 06:23:39;;;;;;;21.15;7.45;;;;;;;;;;5061720;28;20055;-55
2022/01/29 06:26:06;;;;;;;19.73;8.32;;;;;;;;;;5067522;28;20084;-53
2022/01/29 06:28:33;;;;;;;18.92;8.02;;;;;;;;;;5067511;28;20113;-58
2022/01/29 06:31:00;;;;;;;20.35;7.88;;;;;;;;;;5063321;28;20056;-58
2022/01/29 06:33:28;;;;;;;24.00;8.23;;;;;;;;;;5067866;28;20094;-55
2022/01/29 06:35:54;;;;;;;18.05;7.30;;;;;;;;;;5062510;28;20083;-59
2022/01/29 06:38:21;;;;;;;16.63;7.78;;;;;;;;;;5068850;28;20140;-57
2022/01/29 06:40:49;;;;;;;19.70;6.35;;;;;;;;;;5061076;28;20087;-56
2022/01/29 06:43:16;;;;;;;15.85;7.00;;;;;;;;;;5067628;28;20060;-59
2022/01/29 06:45:44;;;;;;;17.17;7.15;;;;;;;;;;5061851;28;20044;-60
2022/01/29 06:48:11;;;;;;;15.25;7.32;;;;;;;;;;5067533;28;20482;-52
2022/01/29 06:50:38;;;;;;;20.13;8.18;;;;;;;;;;5061159;28;20048;-56
2022/01/29 06:53:05;;;;;;;14.50;6.45;;;;;;;;;;5066655;28;20140;-56
2022/01/29 06:55:32;;;;;;;15.25;6.32;;;;;;;;;;5061120;28;20048;-59
2022/01/29 06:57:59;;;;;;;17.38;7.10;;;;;;;;;;5066680;28;20056;-57
2022/01/29 07:00:26;;;;;;;12.77;5.70;;;;;;;;;;5058829;28;20049;-56
2022/01/29 07:02:58;;;;;;;13.85;5.78;;;;;;;;;;5066234;28;20584;-58
2022/01/29 07:05:25;;;;;;;15.70;6.32;;;;;;;;;;5061115;28;20044;-58
2022/01/29 07:07:51;;;;;;;12.52;5.97;;;;;;;;;;5066653;28;20047;-57
2022/01/29 07:10:18;;;;;;;17.73;5.07;;;;;;;;;;5061904;28;20084;-59
2022/01/29 07:12:45;;;;;;;16.67;6.30;;;;;;;;;;5065210;28;20048;-57
2022/01/29 07:15:13;;;;;;;16.58;7.43;;;;;;;;;;5066181;28;20044;-59
2022/01/29 07:17:40;;;;;;;18.77;7.43;;;;;;;;;;5060678;28;20067;-52
2022/01/29 07:20:07;;;;;;;13.95;5.60;;;;;;;;;;5063747;28;20286;-56
2022/01/29 07:22:34;;;;;;;18.63;6.00;;;;;;;;;;5060225;28;20090;-57
2022/01/29 07:25:00;;;;;;;11.70;5.50;;;;;;;;;;5067490;28;20469;-55
2022/01/29 07:27:27;;;;;;;10.98;4.60;;;;;;;;;;5060850;28;20102;-60
2022/01/29 07:29:53;;;;;;;13.30;5.55;;;;;;;;;;5066252;28;20056;-59
2022/01/29 07:32:21;;;;;;;11.20;4.63;;;;;;;;;;5060470;28;20069;-59
2022/01/29 07:34:48;;;;;;;11.60;4.78;;;;;;;;;;5067917;28;20052;-56
2022/01/29 07:37:14;;;;;;;10.30;4.57;;;;;;;;;;5060965;28;20056;-60
2022/01/29 07:39:41;;;;;;;14.10;5.07;;;;;;;;;;5067781;28;20060;-57
2022/01/29 07:42:07;;;;;;;12.18;4.82;;;;;;;;;;5061917;28;20109;-58
2022/01/29 07:44:34;;;;;;;16.17;5.22;;;;;;;;;;5067571;28;20143;-59
2022/01/29 07:47:00;;;;;;;10.07;5.07;;;;;;;;;;5061954;28;20470;-57
2022/01/29 07:49:28;;;;;;;12.65;4.55;;;;;;;;;;5066694;28;20433;-56
2022/01/29 07:51:55;;;;;;;13.33;4.47;;;;;;;;;;5062204;28;20106;-56
2022/01/29 07:54:21;;;;;;;11.82;5.20;;;;;;;;;;5062128;28;20064;-55
2022/01/29 07:56:48;;;;;;;15.07;5.05;;;;;;;;;;5068089;28;20155;-60
2022/01/29 07:59:14;;;;;;;9.93;4.00;;;;;;;;;;5062370;28;20067;-53
2022/01/29 08:01:41;;;;;;;16.60;5.43;;;;;;;;;;5068224;28;20056;-56
2022/01/29 08:04:08;;;;;;;21.55;5.20;;;;;;;;;;5060844;28;20131;-56
2022/01/29 08:06:36;;;;;;;10.32;4.15;;;;;;;;;;5068401;28;20068;-55
2022/01/29 08:09:02;;;;;;;15.77;4.80;;;;;;;;;;5061335;28;20052;-57
2022/01/29 08:11:28;;;;;;;10.80;4.03;;;;;;;;;;5061590;28;20090;-56
2022/01/29 08:13:55;;;;;;;11.85;4.43;;;;;;;;;;5061304;28;20056;-56
2022/01/29 08:16:22;;;;;;;9.95;3.83;;;;;;;;;;5067577;28;20102;-59
2022/01/29 08:18:48;;;;;;;12.07;4.45;;;;;;;;;;5058752;28;20139;-58
2022/01/29 08:21:15;;;;;;;11.55;4.60;;;;;;;;;;5066949;28;20464;-57
2022/01/29 08:23:43;;;;;;;10.75;3.47;;;;;;;;;;5060843;28;20053;-57
2022/01/29 08:26:11;;;;;;;15.32;4.25;;;;;;;;;;5070395;28;20049;-56
2022/01/29 08:28:38;;;;;;;15.43;4.75;;;;;;;;;;5066059;28;20061;-51
2022/01/29 08:31:05;;;;;;;14.63;5.10;;;;;;;;;;5070584;28;20060;-56
2022/01/29 08:33:32;;;;;;;15.20;4.45;;;;;;;;;;5066341;28;20044;-56
2022/01/29 08:35:58;;;;;;;11.07;4.18;;;;;;;;;;5064380;28;20483;-57
2022/01/29 08:38:25;;;;;;;15.90;4.63;;;;;;;;;;5071551;28;20057;-57
2022/01/29 08:40:54;;;;;;;11.77;4.93;;;;;;;;;;5065570;28;20060;-55
2022/01/29 08:43:21;;;;;;;12.15;4.57;;;;;;;;;;5070239;28;20052;-57
2022/01/29 08:45:48;;;;;;;11.32;4.53;;;;;;;;;;5065108;28;20151;-56
2022/01/29 08:48:15;;;;;;;14.27;5.20;;;;;;;;;;5068384;28;20052;-55
2022/01/29 08:50:41;;;;;;;13.98;4.72;;;;;;;;;;5058393;28;20055;-57
2022/01/29 08:53:09;;;;;;;17.83;5.25;;;;;;;;;;5069362;28;20062;-56
2022/01/29 08:55:37;;;;;;;14.20;3.85;;;;;;;;;;5066034;28;20115;-55
2022/01/29 08:58:07;;;;;;;11.25;4.07;;;;;;;;;;5071678;28;20089;-55
2022/01/29 09:00:34;;;;;;;13.18;3.67;;;;;;;;;;5066013;28;20041;-54
2022/01/29 09:03:00;;;;;;;15.52;3.97;;;;;;;;;;5066855;28;20074;-57
2022/01/29 09:05:27;;;;;;;10.60;4.10;;;;;;;;;;5059087;28;20545;-57
2022/01/29 09:07:54;;;;;;;12.40;3.92;;;;;;;;;;5071386;28;20061;-54
2022/01/29 09:10:20;;;;;;;10.23;4.05;;;;;;;;;;5065186;28;20164;-57
2022/01/29 09:12:47;;;;;;;9.30;3.85;;;;;;;;;;5068802;28;20053;-58
2022/01/29 09:15:17;;;;;;;10.23;4.10;;;;;;;;;;5060487;28;20144;-59
2022/01/29 09:17:44;;;;;;;10.43;3.67;;;;;;;;;;5070277;28;20048;-57
2022/01/29 09:20:11;;;;;;;7.10;2.88;;;;;;;;;;5069190;28;20071;-54
2022/01/29 09:22:37;;;;;;;8.25;3.28;;;;;;;;;;5064060;28;20084;-53
2022/01/29 09:25:05;;;;;;;12.65;2.78;;;;;;;;;;5067545;28;20048;-60
2022/01/29 09:27:32;;;;;;;8.05;3.55;;;;;;;;;;5055915;28;20055;-56
2022/01/29 09:29:58;;;;;;;8.98;2.85;;;;;;;;;;5070478;28;20062;-60
2022/01/29 09:32:26;;;;;;;13.55;3.08;;;;;;;;;;5065502;28;20063;-57
2022/01/29 09:34:53;;;;;;;13.37;3.17;;;;;;;;;;5066721;28;20048;-57
2022/01/29 09:37:19;;;;;;;8.93;3.05;;;;;;;;;;5062881;28;20090;-59
2022/01/29 09:39:46;;;;;;;9.60;2.92;;;;;;;;;;5072379;28;20149;-59
2022/01/29 09:42:12;;;;;;;7.13;2.70;;;;;;;;;;5065627;28;20114;-58
2022/01/29 09:44:39;;;;;;;8.27;2.20;;;;;;;;;;5067712;28;20060;-58
2022/01/29 09:47:06;;;;;;;8.25;2.63;;;;;;;;;;5063042;28;20063;-58
2022/01/29 09:49:35;;;;;;;12.00;2.47;;;;;;;;;;5069537;28;20059;-56
2022/01/29 09:52:01;;;;;;;;;;;;;;;;;;5062260;28;20056;-54
2022/01/29 09:54:28;;;;;;;9.35;2.20;;;;;;;;;;5068055;28;19955;-57
2022/01/29 09:56:54;;;;;;;6.15;2.20;;;;;;;;;;5062470;28;20045;-59
2022/01/29 09:59:21;;;;;;;8.32;2.33;;;;;;;;;;5068584;28;20078;-53
2022/01/29 10:01:47;;;;;;;8.68;2.47;;;;;;;;;;5070549;28;20078;-57
2022/01/29 10:04:15;;;;;;;5.60;1.95;;;;;;;;;;5060836;28;20135;-57
2022/01/29 10:06:46;;;;;;;5.22;2.10;;;;;;;;;;5069544;28;20052;-57
2022/01/29 10:09:14;;;;;;;3.78;1.70;;;;;;;;;;5061159;28;20080;-56
2022/01/29 10:11:41;;;;;;;18.25;3.38;;;;;;;;;;5069593;28;20075;-60
2022/01/29 10:14:08;;;;;;;7.78;3.10;;;;;;;;;;5062087;28;20140;-56
2022/01/29 10:16:41;;;;;;;8.25;2.58;;;;;;;;;;5067060;28;20059;-56
2022/01/29 10:19:08;;;;;;;13.65;1.67;;;;;;;;;;5059232;28;20066;-57
2022/01/29 10:21:35;;;;;;;8.52;1.42;;;;;;;;;;5069444;28;20052;-57
2022/01/29 10:24:05;;;;;;;7.57;1.83;;;;;;;;;;5061208;28;20056;-56
2022/01/29 10:26:33;;;;;;;7.63;1.77;;;;;;;;;;5067073;28;20060;-56
2022/01/29 10:28:59;;;;;;;4.78;1.63;;;;;;;;;;5063342;28;20260;-57
2022/01/29 10:31:26;;;;;;;6.93;1.63;;;;;;;;;;5067903;28;20045;-56
2022/01/29 10:33:53;;;;;;;9.27;1.63;;;;;;;;;;5060290;28;20075;-56
2022/01/29 10:36:20;;;;;;;6.82;1.40;;;;;;;;;;5065862;28;20037;-55
2022/01/29 10:38:49;;;;;;;9.15;1.45;;;;;;;;;;5045486;28;20056;-56
2022/01/29 10:41:26;;;;;;;6.65;1.77;;;;;;;;;;5068553;28;20121;-57
2022/01/29 10:43:56;;;;;;;10.57;1.50;;;;;;;;;;5061291;28;20091;-56
2022/01/29 10:46:27;;;;;;;3.83;1.50;;;;;;;;;;5067689;28;20075;-56
2022/01/29 10:48:54;;;;;;;3.47;1.50;;;;;;;;;;5057504;28;20554;-56
2022/01/29 10:51:20;;;;;;;5.15;1.58;;;;;;;;;;5067519;28;20131;-57
2022/01/29 10:53:47;;;;;;;5.70;1.50;;;;;;;;;;5066063;28;20048;-58
2022/01/29 10:56:13;;;;;;;4.43;1.50;;;;;;;;;;5062820;28;20063;-57
2022/01/29 10:58:42;;;;;;;5.07;1.73;;;;;;;;;;5067429;28;20454;-55
2022/01/29 11:01:12;;;;;;;4.47;1.50;;;;;;;;;;5058418;28;20417;-57
2022/01/29 11:03:39;;;;;;;9.00;1.58;;;;;;;;;;5067170;28;20118;-54
2022/01/29 11:06:06;;;;;;;5.05;1.35;;;;;;;;;;5060318;28;20063;-53
2022/01/29 11:08:33;;;;;;;5.15;1.52;;;;;;;;;;5067705;28;20048;-56
2022/01/29 11:11:00;;;;;;;5.28;1.27;;;;;;;;;;5060982;28;20052;-58
2022/01/29 11:13:27;;;;;;;8.95;1.38;;;;;;;;;;5059575;28;20069;-56
2022/01/29 11:15:56;;;;;;;7.13;2.00;;;;;;;;;;5051861;28;20053;-54
2022/01/29 11:18:25;;;;;;;5.65;1.10;;;;;;;;;;5067961;28;20067;-53
2022/01/29 11:20:52;;;;;;;8.93;1.40;;;;;;;;;;5061404;28;20052;-59
2022/01/29 11:23:19;;;;;;;4.28;1.13;;;;;;;;;;5064957;28;20525;-60
2022/01/29 11:25:46;;;;;;;6.20;1.70;;;;;;;;;;5060791;28;20048;-59
2022/01/29 11:28:13;;;;;;;4.32;1.30;;;;;;;;;;5066721;28;20053;-55
2022/01/29 11:30:41;;;;;;;12.73;1.55;;;;;;;;;;5061485;28;20791;-58
2022/01/29 11:33:09;;;;;;;3.58;1.50;;;;;;;;;;5066088;28;20056;-58
2022/01/29 11:35:49;;;;;;;7.82;1.50;;;;;;;;;;5061905;28;20060;-55
2022/01/29 11:38:27;;;;;;;4.25;1.20;;;;;;;;;;5065988;28;20052;-58
2022/01/29 11:40:56;;;;;;;8.43;1.40;;;;;;;;;;5059285;28;20127;-57
2022/01/29 11:43:24;;;;;;;6.72;1.80;;;;;;;;;;5065886;28;20049;-60
2022/01/29 11:45:54;;;;;;;8.77;1.48;;;;;;;;;;5066412;28;20098;-60
2022/01/29 11:48:49;;;;;;;5.63;1.38;;;;;;;;;;5058048;28;20139;-59
2022/01/29 11:51:37;;;;;;;11.85;1.70;;;;;;;;;;5060075;28;20051;-56
2022/01/29 11:54:05;;;;;;;9.77;1.50;;;;;;;;;;5065744;28;20052;-60
2022/01/29 11:56:32;;;;;;;7.40;1.60;;;;;;;;;;5060124;28;20121;-59
2022/01/29 11:59:20;;;;;;;5.07;1.25;;;;;;;;;;5065550;28;20098;-56
2022/01/29 12:01:47;;;;;;;6.82;1.45;;;;;;;;;;5055177;28;20060;-57
2022/01/29 12:04:14;;;;;;;9.93;1.42;;;;;;;;;;5065830;28;20053;-56
2022/01/29 12:07:10;;;;;;;13.38;3.47;;;;;;;;;;5065650;28;20163;-59
2022/01/29 12:09:44;;;;;;;8.30;1.70;;;;;;;;;;5057097;28;20044;-59
2022/01/29 12:12:17;;;;;;;5.88;1.40;;;;;;;;;;5060298;28;20076;-59
2022/01/29 12:14:44;;;;;;;7.43;1.40;;;;;;;;;;5047020;28;20076;-58
2022/01/29 12:17:11;;;;;;;6.20;1.30;;;;;;;;;;5043228;28;20509;-59
2022/01/29 12:19:39;;;;;;;11.48;2.03;;;;;;;;;;5063194;28;20052;-60
2022/01/29 12:22:11;;;;;;;9.32;1.52;;;;;;;;;;5065815;28;20052;-59
2022/01/29 12:24:38;;;;;;;6.60;1.70;;;;;;;;;;5059314;28;20080;-57
2022/01/29 12:27:05;;;;;;;7.95;1.65;;;;;;;;;;5066079;28;20056;-59
2022/01/29 12:29:32;;;;;;;11.32;1.73;;;;;;;;;;5060363;28;20086;-59
2022/01/29 12:31:59;;;;;;;6.80;1.60;;;;;;;;;;5065780;28;20118;-59
2022/01/29 12:34:28;;;;;;;6.25;1.67;;;;;;;;;;5059170;28;20258;-58
2022/01/29 12:37:07;;;;;;;9.48;1.63;;;;;;;;;;5065498;28;20049;-57
2022/01/29 12:39:36;;;;;;;5.38;1.90;;;;;;;;;;5059555;28;20064;-57
2022/01/29 12:42:11;;;;;;;7.07;1.60;;;;;;;;;;5065889;28;20129;-60
2022/01/29 12:44:37;;;;;;;12.80;1.88;;;;;;;;;;5060913;28;20040;-58
2022/01/29 12:47:04;;;;;;;6.53;1.90;;;;;;;;;;5067236;28;20057;-60
2022/01/29 12:49:39;;;;;;;8.88;2.45;;;;;;;;;;5062240;28;20094;-59
2022/01/29 12:52:07;;;;;;;8.05;1.92;;;;;;;;;;5067178;28;20048;-59
2022/01/29 12:54:34;;;;;;;;;;;;;;;;;;5060353;28;20063;-59
2022/01/29 12:57:04;;;;;;;6.20;2.00;;;;;;;;;;5065132;28;19973;-60
2022/01/29 12:59:30;;;;;;;8.52;1.60;;;;;;;;;;5059798;28;20068;-59
2022/01/29 13:01:57;;;;;;;13.40;2.25;;;;;;;;;;5065896;28;20056;-55
2022/01/29 13:04:24;;;;;;;15.77;1.90;;;;;;;;;;5057845;28;20102;-58
2022/01/29 13:06:59;;;;;;;10.75;1.63;;;;;;;;;;5065921;28;20059;-56
2022/01/29 13:09:27;;;;;;;4.65;1.42;;;;;;;;;;5059810;28;20063;-59
2022/01/29 13:11:57;;;;;;;5.60;1.70;;;;;;;;;;5068504;28;20056;-57
2022/01/29 13:14:30;;;;;;;11.05;2.40;;;;;;;;;;5051443;28;20061;-56
2022/01/29 13:16:58;;;;;;;3.90;1.65;;;;;;;;;;5068888;28;20063;-56
2022/01/29 13:19:25;;;;;;;6.80;1.75;;;;;;;;;;5069163;28;20098;-57
2022/01/29 13:21:57;;;;;;;4.93;2.08;;;;;;;;;;5062731;28;20052;-57
2022/01/29 13:24:32;;;;;;;7.93;2.30;;;;;;;;;;5068784;28;20446;-59
2022/01/29 13:26:59;;;;;;;7.60;2.50;;;;;;;;;;5062682;28;20052;-59
2022/01/29 13:29:33;;;;;;;10.85;3.75;;;;;;;;;;5067306;28;20036;-58
2022/01/29 13:31:59;;;;;;;6.80;1.60;;;;;;;;;;5060839;28;20106;-55
2022/01/29 13:34:27;;;;;;;11.63;2.00;;;;;;;;;;5067992;28;20151;-58
2022/01/29 13:36:54;;;;;;;14.30;1.97;;;;;;;;;;5048654;28;20059;-54
2022/01/29 13:39:20;;;;;;;9.10;2.33;;;;;;;;;;5049140;28;20098;-58
2022/01/29 13:41:47;;;;;;;3.47;1.45;;;;;;;;;;5055270;28;20116;-56
2022/01/29 13:44:14;;;;;;;7.50;1.65;;;;;;;;;;5068765;28;20068;-55
2022/01/29 13:46:42;;;;;;;5.13;1.95;;;;;;;;;;5062955;28;20044;-56
2022/01/29 13:49:08;;;;;;;4.47;1.23;;;;;;;;;;5068336;28;20052;-57
2022/01/29 13:51:36;;;;;;;10.93;2.10;;;;;;;;;;5062830;28;20525;-60
2022/01/29 13:54:05;;;;;;;7.03;1.63;;;;;;;;;;5065799;28;20060;-59
2022/01/29 13:56:32;;;;;;;;;;;;;;;;;;5060949;28;20049;-57
2022/01/29 13:59:01;;;;;;;5.25;1.55;;;;;;;;;;5059661;28;20006;-58
2022/01/29 14:01:27;;;;;;;;;;;;;;;;;;5055882;28;20057;-53
2022/01/29 14:03:55;;;;;;;13.73;3.15;;;;;;;;;;5067546;28;20011;-59
2022/01/29 14:06:25;;;;;;;10.55;1.38;;;;;;;;;;5067483;28;20145;-59
2022/01/29 14:09:23;;;;;;;4.10;1.23;;;;;;;;;;5065227;28;20052;-59
2022/01/29 14:12:10;;;;;;;5.57;1.40;;;;;;;;;;5002766;28;20071;-60
2022/01/29 14:14:38;;;;;;;4.63;1.38;;;;;;;;;;5055561;28;20048;-59
2022/01/29 14:17:06;;;;;;;3.78;1.17;;;;;;;;;;5061294;28;20063;-60
2022/01/29 14:19:34;;;;;;;8.85;1.75;;;;;;;;;;5067653;28;20055;-58
2022/01/29 14:22:01;;;;;;;;;;;;;;;;;;5067110;28;20056;-56
2022/01/29 14:24:28;;;;;;;9.63;1.40;;;;;;;;;;5065948;28;19927;-60
2022/01/29 14:26:55;;;;;;;13.05;2.65;;;;;;;;;;5068794;28;20080;-59
2022/01/29 14:29:22;;;;;;;7.72;2.00;;;;;;;;;;5060122;28;20048;-56
2022/01/29 14:31:48;;;;;;;5.18;1.10;;;;;;;;;;5066808;28;20134;-57
2022/01/29 14:34:15;;;;;;;9.13;1.50;;;;;;;;;;5059933;28;20056;-56
2022/01/29 14:36:43;;;;;;;8.30;1.50;;;;;;;;;;5064968;28;20048;-60
2022/01/29 14:39:09;;;;;;;8.45;1.33;;;;;;;;;;5060998;28;20102;-60
2022/01/29 14:41:37;;;;;;;6.18;1.73;;;;;;;;;;5066427;28;20048;-58
2022/01/29 14:44:04;;;;;;;6.57;1.23;;;;;;;;;;5060881;28;20064;-56
2022/01/29 14:46:30;;;;;;;9.77;1.80;;;;;;;;;;5066494;28;20045;-54